createdAt,value
2019-01-05T00:00:28.691Z,84.36
2019-01-05T00:03:14.790Z,84.36
2019-01-05T00:06:01.320Z,84.54
2019-01-05T00:08:47.800Z,84.16
2019-01-05T00:11:34.319Z,84.16
2019-01-05T00:14:20.780Z,84.15
2019-01-05T00:17:07.332Z,84.15
2019-01-05T00:19:54.097Z,84.51
2019-01-05T00:22:40.588Z,84.17
2019-01-05T00:25:27.527Z,84.17
2019-01-05T00:28:14.070Z,85.01
2019-01-05T00:31:00.501Z,84.06
2019-01-05T00:33:48.162Z,84.06
2019-01-05T00:36:34.892Z,84.80
2019-01-05T00:39:21.421Z,84.38
2019-01-05T00:42:07.949Z,84.61
2019-01-05T00:44:54.454Z,84.61
2019-01-05T00:47:41.205Z,84.57
2019-01-05T00:50:27.702Z,84.61
2019-01-05T00:53:14.415Z,84.60
2019-01-05T01:01:59.016Z,84.55
2019-01-05T01:04:46.711Z,85.00
2019-01-05T01:07:33.147Z,84.49
2019-01-05T01:10:19.641Z,84.40
2019-01-05T01:13:06.466Z,84.40
2019-01-05T01:15:52.962Z,84.53
2019-01-05T01:18:39.759Z,84.53
2019-01-05T01:21:26.280Z,85.16
2019-01-05T01:24:12.978Z,85.16
2019-01-05T01:27:02.448Z,84.75
2019-01-05T01:29:57.183Z,84.75
2019-01-05T01:32:43.624Z,84.73
2019-01-05T01:35:30.407Z,84.76
2019-01-05T01:38:16.857Z,84.59
2019-01-05T01:41:03.643Z,84.63
2019-01-05T01:43:50.090Z,84.56
2019-01-05T01:46:36.846Z,84.60
2019-01-05T01:49:23.305Z,84.58
2019-01-05T01:52:10.485Z,84.58
2019-01-05T01:54:57.003Z,84.86
2019-01-05T01:57:43.780Z,84.86
2019-01-05T02:00:30.208Z,85.21
2019-01-05T02:06:22.177Z,84.73
2019-01-05T02:09:08.940Z,84.73
2019-01-05T02:11:55.371Z,84.96
2019-01-05T02:14:42.192Z,84.93
2019-01-05T02:17:28.630Z,84.86
2019-01-05T02:20:15.459Z,84.86
2019-01-05T02:23:01.924Z,84.94
2019-01-05T02:25:48.419Z,84.95
2019-01-05T02:28:32.208Z,84.97
2019-01-05T02:31:19.408Z,84.95
2019-01-05T02:34:05.848Z,84.65
2019-01-05T02:36:52.629Z,84.66
2019-01-05T02:39:39.062Z,84.95
2019-01-05T02:42:25.857Z,84.61
2019-01-05T02:45:12.329Z,84.61
2019-01-05T02:47:59.087Z,84.78
2019-01-05T02:50:35.353Z,84.78
2019-01-05T02:53:22.100Z,85.06
2019-01-05T02:56:08.608Z,85.20
2019-01-05T02:58:55.341Z,85.20
2019-01-05T03:01:41.857Z,85.08
2019-01-05T03:04:28.598Z,85.03
2019-01-05T03:07:15.094Z,85.03
2019-01-05T03:10:14.174Z,85.34
2019-01-05T03:12:48.175Z,85.34
2019-01-05T03:15:34.972Z,85.10
2019-01-05T03:18:21.391Z,85.46
2019-01-05T03:21:08.186Z,84.99
2019-01-05T03:23:54.729Z,84.72
2019-01-05T03:26:41.198Z,85.56
2019-01-05T03:29:27.713Z,85.56
2019-01-05T03:32:12.011Z,85.10
2019-01-05T03:34:58.538Z,85.10
2019-01-05T03:37:46.180Z,85.10
2019-01-05T03:40:32.618Z,85.21
2019-01-05T03:43:19.409Z,84.85
2019-01-05T03:46:05.949Z,84.85
2019-01-05T03:48:47.690Z,85.13
2019-01-05T03:51:34.170Z,85.13
2019-01-05T03:54:20.983Z,85.08
2019-01-05T03:57:07.535Z,85.05
2019-01-05T03:59:54.262Z,84.97
2019-01-05T04:02:40.805Z,84.97
2019-01-05T04:05:27.512Z,85.10
2019-01-05T04:08:14.011Z,85.01
2019-01-05T04:11:00.879Z,85.01
2019-01-05T04:13:47.328Z,84.95
2019-01-05T04:16:33.855Z,84.95
2019-01-05T04:19:20.291Z,85.13
2019-01-05T04:22:06.805Z,85.13
2019-01-05T04:24:53.497Z,85.27
2019-01-05T04:27:33.927Z,84.94
2019-01-05T04:30:20.371Z,84.94
2019-01-05T04:33:06.855Z,85.31
2019-01-05T04:35:53.552Z,85.65
2019-01-05T04:38:40.046Z,85.65
2019-01-05T04:41:29.819Z,85.75
2019-01-05T04:44:16.274Z,85.75
2019-01-05T04:47:03.029Z,85.80
2019-01-05T04:49:49.464Z,85.80
2019-01-05T04:52:36.254Z,85.47
2019-01-05T04:55:22.720Z,85.83
2019-01-05T04:58:09.505Z,85.83
2019-01-05T05:00:56.024Z,85.52
2019-01-05T05:03:42.716Z,85.58
2019-01-05T05:06:29.214Z,85.58
2019-01-05T05:09:15.713Z,85.86
2019-01-05T05:12:02.249Z,85.27
2019-01-05T05:14:49.037Z,85.27
2019-01-05T05:17:35.531Z,86.02
2019-01-05T05:20:22.234Z,86.02
2019-01-05T05:23:08.738Z,86.10
2019-01-05T05:28:47.445Z,86.10
2019-01-05T05:31:34.210Z,85.90
2019-01-05T05:34:20.693Z,85.53
2019-01-05T05:37:07.459Z,85.53
2019-01-05T05:39:53.950Z,85.69
2019-01-05T05:42:40.385Z,85.64
2019-01-05T05:45:26.911Z,85.99
2019-01-05T05:51:05.265Z,85.72
2019-01-05T05:53:51.976Z,85.73
2019-01-05T05:56:38.490Z,85.86
2019-01-05T05:59:25.271Z,85.48
2019-01-05T06:02:11.726Z,85.42
2019-01-05T06:04:58.248Z,85.37
2019-01-05T06:07:44.739Z,85.37
2019-01-05T06:10:31.529Z,85.98
2019-01-05T06:13:18.050Z,85.98
2019-01-05T06:16:04.762Z,85.36
2019-01-05T06:18:51.321Z,85.36
2019-01-05T06:21:38.083Z,85.35
2019-01-05T06:24:24.576Z,85.52
2019-01-05T06:27:11.061Z,85.46
2019-01-05T06:29:57.582Z,85.46
2019-01-05T06:32:44.338Z,85.57
2019-01-05T06:35:30.872Z,85.54
2019-01-05T06:38:11.421Z,85.53
2019-01-05T06:40:57.954Z,85.50
2019-01-05T06:49:01.200Z,85.15
2019-01-05T06:51:50.212Z,85.35
2019-01-05T06:54:36.669Z,85.23
2019-01-05T06:57:23.423Z,85.28
2019-01-05T07:00:09.990Z,85.28
2019-01-05T07:02:56.434Z,85.03
2019-01-05T07:05:49.326Z,85.03
2019-01-05T07:08:25.508Z,85.55
2019-01-05T07:11:12.509Z,85.55
2019-01-05T07:13:59.394Z,85.46
2019-01-05T07:16:45.883Z,85.46
2019-01-05T07:19:32.412Z,85.44
2019-01-05T07:22:18.909Z,85.44
2019-01-05T07:25:05.345Z,85.48
2019-01-05T07:27:51.841Z,85.51
2019-01-05T07:30:38.298Z,85.53
2019-01-05T07:33:24.816Z,85.58
2019-01-05T07:36:11.278Z,85.60
2019-01-05T07:38:58.204Z,85.62
2019-01-05T07:41:44.681Z,85.64
2019-01-05T07:44:31.183Z,85.46
2019-01-05T07:47:17.679Z,85.46
2019-01-05T07:50:04.173Z,86.09
2019-01-05T07:52:50.618Z,85.42
2019-01-05T07:55:37.174Z,85.42
2019-01-05T07:58:23.597Z,85.73
2019-01-05T08:01:22.578Z,86.25
2019-01-05T08:03:58.574Z,85.92
2019-01-05T08:06:45.062Z,85.94
2019-01-05T08:09:31.584Z,85.94
2019-01-05T08:12:18.398Z,85.82
2019-01-05T08:15:04.937Z,85.82
2019-01-05T08:17:51.370Z,85.89
2019-01-05T08:20:38.362Z,85.88
2019-01-05T08:23:24.799Z,85.91
2019-01-05T08:26:11.294Z,85.93
2019-01-05T08:28:58.043Z,86.15
2019-01-05T08:31:44.532Z,86.06
2019-01-05T08:34:31.012Z,86.06
2019-01-05T08:37:17.508Z,86.05
2019-01-05T08:40:04.041Z,86.35
2019-01-05T08:42:50.468Z,86.35
2019-01-05T08:45:37.018Z,86.06
2019-01-05T08:48:23.450Z,86.06
2019-01-05T08:51:09.955Z,86.06
2019-01-05T08:53:56.470Z,86.06
2019-01-05T08:56:42.982Z,86.07
2019-01-05T08:59:29.526Z,86.08
2019-01-05T09:02:15.993Z,86.09
2019-01-05T09:05:02.506Z,86.09
2019-01-05T09:13:05.835Z,86.30
2019-01-05T09:15:52.312Z,85.91
2019-01-05T09:18:38.793Z,85.91
2019-01-05T09:21:25.308Z,85.77
2019-01-05T09:24:11.747Z,85.77
2019-01-05T09:26:58.265Z,86.03
2019-01-05T09:29:44.706Z,86.00
2019-01-05T09:32:31.204Z,86.00
2019-01-05T09:35:17.665Z,86.03
2019-01-05T09:38:04.196Z,86.05
2019-01-05T09:40:42.659Z,85.99
2019-01-05T09:43:29.151Z,85.95
2019-01-05T09:46:15.583Z,86.44
2019-01-05T09:49:02.137Z,86.44
2019-01-05T09:51:48.599Z,86.04
2019-01-05T09:54:35.086Z,86.03
2019-01-05T09:57:21.624Z,85.97
2019-01-05T10:00:20.508Z,85.97
2019-01-05T10:02:56.215Z,86.02
2019-01-05T10:05:43.037Z,86.00
2019-01-05T10:08:29.964Z,85.99
2019-01-05T10:11:16.466Z,85.99
2019-01-05T10:14:02.938Z,85.99
2019-01-05T10:16:49.455Z,86.04
2019-01-05T10:19:36.346Z,86.02
2019-01-05T10:22:22.809Z,86.02
2019-01-05T10:25:09.306Z,85.97
2019-01-05T10:27:55.813Z,85.98
2019-01-05T10:30:42.241Z,85.95
2019-01-05T10:33:28.667Z,85.78
2019-01-05T10:36:15.183Z,85.78
2019-01-05T10:39:01.671Z,85.47
2019-01-05T10:41:48.178Z,85.47
2019-01-05T10:44:34.712Z,85.89
2019-01-05T10:47:21.133Z,85.86
2019-01-05T10:50:07.650Z,85.86
2019-01-05T10:52:54.121Z,85.80
2019-01-05T10:55:41.055Z,85.76
2019-01-05T10:58:27.521Z,85.76
2019-01-05T11:01:14.000Z,85.80
2019-01-05T11:04:00.468Z,85.81
2019-01-05T11:06:46.989Z,85.83
2019-01-05T11:09:33.512Z,86.20
2019-01-05T11:12:19.974Z,86.20
2019-01-05T11:15:06.475Z,85.86
2019-01-05T11:20:38.286Z,86.08
2019-01-05T11:23:25.087Z,86.08
2019-01-05T11:26:11.599Z,85.10
2019-01-05T11:28:58.494Z,85.29
2019-01-05T11:31:44.928Z,85.20
2019-01-05T11:34:31.427Z,85.20
2019-01-05T11:37:20.210Z,85.41
2019-01-05T11:40:07.117Z,85.48
2019-01-05T11:42:56.105Z,85.55
2019-01-05T11:45:42.589Z,85.63
2019-01-05T11:48:29.025Z,85.69
2019-01-05T11:51:15.874Z,85.72
2019-01-05T11:54:02.383Z,85.73
2019-01-05T11:56:48.809Z,86.06
2019-01-05T11:59:35.300Z,85.95
2019-01-05T12:02:21.784Z,85.95
2019-01-05T12:05:08.288Z,85.88
2019-01-05T12:07:54.755Z,85.93
2019-01-05T12:10:40.750Z,85.93
2019-01-05T12:13:27.249Z,85.94
2019-01-05T12:16:13.751Z,85.97
2019-01-05T12:19:00.180Z,85.94
2019-01-05T12:21:39.628Z,85.97
2019-01-05T12:24:26.067Z,85.97
2019-01-05T12:27:12.572Z,86.08
2019-01-05T12:30:11.741Z,86.08
2019-01-05T12:32:47.218Z,86.04
2019-01-05T12:35:34.108Z,86.53
2019-01-05T12:38:20.661Z,86.09
2019-01-05T12:41:07.114Z,86.09
2019-01-05T12:43:53.367Z,86.10
2019-01-05T12:46:39.833Z,86.11
2019-01-05T12:49:26.319Z,86.09
2019-01-05T12:52:12.800Z,86.08
2019-01-05T12:54:59.309Z,86.08
2019-01-05T12:57:46.128Z,86.02
2019-01-05T13:00:32.597Z,86.54
2019-01-05T13:03:19.105Z,86.54
2019-01-05T13:06:05.590Z,86.10
2019-01-05T13:08:52.019Z,86.09
2019-01-05T13:11:38.538Z,86.09
2019-01-05T13:14:24.965Z,86.12
2019-01-05T13:17:11.499Z,86.12
2019-01-05T13:23:03.181Z,86.02
2019-01-05T13:25:52.038Z,86.02
2019-01-05T13:28:38.566Z,86.16
2019-01-05T13:31:25.118Z,86.16
2019-01-05T13:34:11.633Z,86.19
2019-01-05T13:36:58.159Z,86.21
2019-01-05T13:39:44.695Z,86.18
2019-01-05T13:42:31.986Z,86.22
2019-01-05T13:45:18.469Z,86.22
2019-01-05T13:48:04.944Z,86.24
2019-01-05T13:50:51.390Z,86.23
2019-01-05T13:53:38.200Z,86.23
2019-01-05T13:56:26.909Z,86.24
2019-01-05T13:59:14.252Z,86.24
2019-01-05T14:02:03.011Z,86.26
2019-01-05T14:04:49.685Z,86.28
2019-01-05T14:07:36.199Z,85.91
2019-01-05T14:10:25.180Z,86.54
2019-01-05T14:13:11.675Z,86.54
2019-01-05T14:15:58.213Z,86.36
2019-01-05T14:18:44.737Z,86.35
2019-01-05T14:21:31.169Z,86.27
2019-01-05T14:24:17.707Z,86.27
2019-01-05T14:30:07.070Z,86.39
2019-01-05T14:32:53.583Z,86.39
2019-01-05T14:35:40.092Z,86.36
2019-01-05T14:38:26.531Z,86.36
2019-01-05T14:41:13.096Z,86.92
2019-01-05T14:43:59.547Z,86.47
2019-01-05T14:46:46.121Z,86.47
2019-01-05T14:49:32.550Z,86.54
2019-01-05T14:52:19.097Z,86.57
2019-01-05T14:55:05.548Z,86.25
2019-01-05T14:57:52.085Z,86.48
2019-01-05T15:00:38.522Z,86.48
2019-01-05T15:03:18.830Z,86.62
2019-01-05T15:06:05.361Z,86.66
2019-01-05T15:08:51.876Z,86.59
2019-01-05T15:11:52.339Z,86.87
2019-01-05T15:14:26.501Z,86.87
2019-01-05T15:17:13.313Z,86.73
2019-01-05T15:19:59.860Z,86.75
2019-01-05T15:22:46.293Z,86.78
2019-01-05T15:25:33.061Z,86.80
2019-01-05T15:28:21.378Z,86.78
2019-01-05T15:31:07.873Z,86.78
2019-01-05T15:33:54.445Z,86.87
2019-01-05T15:36:40.894Z,86.90
2019-01-05T15:39:27.984Z,86.91
2019-01-05T15:42:15.519Z,86.90
2019-01-05T15:45:02.042Z,86.92
2019-01-05T15:47:48.501Z,86.94
2019-01-05T15:50:35.024Z,87.28
2019-01-05T15:53:35.145Z,87.47
2019-01-05T15:56:11.731Z,87.47
2019-01-05T15:58:58.254Z,86.99
2019-01-05T16:01:44.734Z,86.65
2019-01-05T16:04:31.185Z,86.65
2019-01-05T16:07:20.195Z,87.00
2019-01-05T16:10:06.701Z,87.01
2019-01-05T16:12:53.166Z,87.01
2019-01-05T16:15:39.660Z,86.99
2019-01-05T16:18:38.643Z,87.00
2019-01-05T16:21:14.315Z,87.19
2019-01-05T16:24:03.502Z,87.19
2019-01-05T16:26:49.968Z,87.05
2019-01-05T16:29:38.365Z,87.03
2019-01-05T16:32:24.830Z,87.04
2019-01-05T16:35:11.338Z,87.04
2019-01-05T16:38:00.722Z,87.04
2019-01-05T16:40:47.211Z,87.04
2019-01-05T16:43:33.650Z,86.98
2019-01-05T16:46:20.161Z,87.43
2019-01-05T16:49:06.668Z,87.43
2019-01-05T16:51:53.194Z,87.05
2019-01-05T16:54:39.721Z,87.04
2019-01-05T16:57:26.340Z,87.04
2019-01-05T17:00:12.995Z,87.11
2019-01-05T17:02:59.615Z,87.11
2019-01-05T17:05:46.134Z,87.37
2019-01-05T17:08:32.616Z,86.99
2019-01-05T17:11:41.590Z,87.39
2019-01-05T17:16:45.994Z,87.10
2019-01-05T17:19:36.457Z,86.83
2019-01-05T17:22:20.621Z,86.83
2019-01-05T17:25:10.089Z,87.15
2019-01-05T17:27:56.577Z,87.18
2019-01-05T17:30:43.328Z,87.34
2019-01-05T17:36:47.629Z,87.25
2019-01-05T17:39:28.442Z,87.20
2019-01-05T17:42:14.926Z,87.20
2019-01-05T17:45:01.433Z,87.14
2019-01-05T17:47:48.349Z,87.14
2019-01-05T17:50:34.836Z,87.27
2019-01-05T17:53:35.336Z,87.26
2019-01-05T17:56:11.275Z,87.24
2019-01-05T17:59:00.269Z,87.24
2019-01-05T18:01:47.066Z,87.24
2019-01-05T18:04:35.247Z,87.22
2019-01-05T18:07:21.793Z,87.76
2019-01-05T18:10:08.257Z,87.76
2019-01-05T18:12:54.785Z,87.25
2019-01-05T18:15:41.243Z,87.57
2019-01-05T18:18:27.736Z,87.57
2019-01-05T18:21:14.172Z,87.57
2019-01-05T18:24:00.685Z,87.13
2019-01-05T18:26:47.948Z,87.13
2019-01-05T18:29:34.443Z,87.32
2019-01-05T18:32:20.961Z,87.25
2019-01-05T18:35:07.465Z,87.36
2019-01-05T18:37:53.919Z,87.36
2019-01-05T18:40:40.413Z,87.09
2019-01-05T18:43:26.887Z,87.09
2019-01-05T18:46:13.450Z,87.23
2019-01-05T18:48:59.881Z,87.23
2019-01-05T18:51:46.490Z,87.35
2019-01-05T18:54:38.034Z,87.26
2019-01-05T18:57:24.633Z,87.26
2019-01-05T19:00:12.497Z,87.35
2019-01-05T19:03:03.173Z,87.37
2019-01-05T19:05:49.615Z,87.37
2019-01-05T19:08:36.097Z,87.15
2019-01-05T19:14:30.261Z,87.02
2019-01-05T19:17:16.724Z,87.02
2019-01-05T19:20:03.273Z,87.36
2019-01-05T19:22:49.704Z,87.47
2019-01-05T19:25:36.213Z,87.69
2019-01-05T19:28:22.652Z,87.28
2019-01-05T19:31:10.513Z,87.28
2019-01-05T19:33:57.080Z,87.39
2019-01-05T19:36:45.389Z,87.40
2019-01-05T19:39:31.889Z,87.21
2019-01-05T19:42:18.347Z,87.21
2019-01-05T19:45:04.860Z,87.12
2019-01-05T19:47:51.330Z,87.12
2019-01-05T19:50:37.822Z,87.41
2019-01-05T19:53:24.245Z,87.43
2019-01-05T19:56:10.744Z,87.46
2019-01-05T19:58:57.203Z,87.48
2019-01-05T20:01:43.692Z,87.48
2019-01-05T20:04:30.151Z,87.49
2019-01-05T20:07:16.674Z,87.58
2019-01-05T20:10:03.115Z,87.58
2019-01-05T20:12:49.644Z,87.54
2019-01-05T20:15:48.161Z,87.64
2019-01-05T20:18:24.230Z,87.86
2019-01-05T20:21:12.964Z,87.44
2019-01-05T20:24:01.369Z,87.44
2019-01-05T20:26:52.500Z,87.52
2019-01-05T20:29:39.062Z,87.26
2019-01-05T20:32:28.087Z,87.26
2019-01-05T20:35:14.518Z,87.95
2019-01-05T20:38:01.006Z,87.95
2019-01-05T20:40:47.548Z,87.53
2019-01-05T20:46:39.190Z,87.52
2019-01-05T20:49:25.731Z,87.81
2019-01-05T20:52:12.195Z,87.12
2019-01-05T20:54:58.728Z,87.61
2019-01-05T20:57:45.244Z,87.61
2019-01-05T21:00:34.489Z,87.35
2019-01-05T21:03:20.294Z,87.86
2019-01-05T21:06:01.663Z,87.92
2019-01-05T21:08:48.577Z,87.92
2019-01-05T21:11:35.040Z,87.57
2019-01-05T21:14:21.537Z,87.57
2019-01-05T21:17:09.181Z,87.15
2019-01-05T21:19:55.750Z,87.15
2019-01-05T21:22:42.188Z,87.59
2019-01-05T21:25:53.602Z,87.62
2019-01-05T21:28:31.992Z,87.63
2019-01-05T21:31:07.731Z,87.63
2019-01-05T21:34:14.845Z,87.62
2019-01-05T21:36:51.249Z,87.33
2019-01-05T21:45:10.815Z,87.51
2019-01-05T21:47:59.737Z,87.51
2019-01-05T21:50:35.303Z,87.58
2019-01-05T21:53:21.782Z,87.61
2019-01-05T21:56:08.240Z,87.61
2019-01-05T21:58:54.761Z,87.29
2019-01-05T22:01:41.202Z,87.29
2019-01-05T22:04:29.909Z,87.64
2019-01-05T22:07:16.411Z,87.27
2019-01-05T22:10:05.743Z,87.27
2019-01-05T22:12:52.663Z,87.92
2019-01-05T22:15:39.180Z,87.92
2019-01-05T22:18:25.712Z,87.56
2019-01-05T22:21:12.219Z,87.54
2019-01-05T22:23:58.770Z,87.89
2019-01-05T22:26:45.211Z,87.89
2019-01-05T22:29:31.735Z,87.88
2019-01-05T22:32:18.195Z,87.27
2019-01-05T22:35:04.742Z,87.97
2019-01-05T22:37:51.228Z,87.97
2019-01-05T22:40:37.693Z,87.55
2019-01-05T22:43:24.228Z,87.57
2019-01-05T22:46:10.660Z,87.62
2019-01-05T22:48:57.173Z,87.33
2019-01-05T22:51:43.605Z,87.33
2019-01-05T22:54:30.403Z,87.93
2019-01-05T22:57:29.301Z,87.93
2019-01-05T23:00:05.046Z,87.90
2019-01-05T23:02:51.544Z,87.90
2019-01-05T23:05:37.974Z,87.61
2019-01-05T23:08:24.480Z,88.05
2019-01-05T23:11:23.225Z,87.78
2019-01-05T23:13:59.126Z,87.78
2019-01-05T23:16:45.572Z,87.78
2019-01-05T23:19:33.881Z,87.78
2019-01-05T23:22:20.264Z,87.69
2019-01-05T23:25:06.793Z,87.67
2019-01-05T23:27:53.298Z,87.88
2019-01-05T23:30:39.799Z,87.88
2019-01-05T23:33:26.229Z,87.62
2019-01-05T23:36:12.751Z,87.74
2019-01-05T23:38:59.235Z,87.74
2019-01-05T23:41:45.701Z,87.66
2019-01-05T23:44:32.213Z,87.69
2019-01-05T23:47:18.758Z,87.97
2019-01-05T23:50:05.287Z,87.37
2019-01-05T23:52:51.741Z,87.37
2019-01-05T23:55:38.274Z,87.83
2019-01-05T23:58:24.842Z,87.83
